Time;durP1;ratioP1;P1;durP2;ratioP2;P2;SDS_P1;SDS_P2;PMS_P1;PMS_P2;Temp;Humidity;BMP_temperature;BMP_pressure;BME280_temperature;BME280_humidity;BME280_pressure;Samples;Min_cycle;Max_cycle;Signal;HPM_P1;HPM_P2
2023/05/16 00:00:27;;;;;;;8.77;8.00;;;;;;;12.39;100.00;97769.81;5074650;28;20204;-78
2023/05/16 00:02:54;;;;;;;9.60;8.80;;;;;;;12.39;100.00;97769.81;5074420;28;20215;-78
2023/05/16 00:05:20;;;;;;;11.60;9.77;;;;;;;12.44;100.00;97761.09;5074387;28;20315;-78
2023/05/16 00:07:47;;;;;;;10.80;9.80;;;;;;;12.56;100.00;97765.34;5074743;28;20204;-78
2023/05/16 00:10:13;;;;;;;10.10;9.10;;;;;;;12.56;100.00;97762.66;5074092;28;20667;-78
2023/05/16 00:12:40;;;;;;;11.30;10.13;;;;;;;12.59;100.00;97762.22;5074296;28;20215;-78
2023/05/16 00:15:11;;;;;;;11.07;10.00;;;;;;;12.68;100.00;97765.28;5074271;28;20254;-78
2023/05/16 00:17:38;;;;;;;10.83;9.73;;;;;;;12.65;100.00;97773.75;5074071;28;20260;-78
2023/05/16 00:20:09;;;;;;;9.27;8.47;;;;;;;12.62;100.00;97761.72;5074150;28;20231;-78
2023/05/16 00:22:36;;;;;;;11.17;10.17;;;;;;;12.68;100.00;97757.28;5074424;28;20606;-78
2023/05/16 00:25:03;;;;;;;11.27;10.17;;;;;;;12.70;100.00;97755.22;5073711;28;20696;-78
2023/05/16 00:27:30;;;;;;;11.43;10.27;;;;;;;12.68;100.00;97763.44;5074056;28;20213;-78
2023/05/16 00:29:56;;;;;;;11.20;10.20;;;;;;;12.64;100.00;97761.47;5073259;28;20203;-78
2023/05/16 00:32:23;;;;;;;11.60;10.53;;;;;;;12.63;100.00;97760.69;5073955;28;20202;-78
2023/05/16 00:34:49;;;;;;;13.23;11.83;;;;;;;12.66;100.00;97760.19;5074228;28;20220;-78
2023/05/16 00:37:15;;;;;;;13.70;12.30;;;;;;;12.64;100.00;97756.13;5073961;28;20226;-78
2023/05/16 00:39:41;;;;;;;13.63;12.47;;;;;;;12.62;100.00;97752.91;5073848;28;20228;-78
2023/05/16 00:42:08;;;;;;;12.47;11.30;;;;;;;12.59;100.00;97758.72;5074048;28;20210;-78
2023/05/16 00:44:34;;;;;;;14.20;12.67;;;;;;;12.65;100.00;97750.56;5073726;28;20211;-78
2023/05/16 00:47:02;;;;;;;16.23;14.53;;;;;;;12.69;100.00;97753.56;5073876;28;20347;-78
2023/05/16 00:49:29;;;;;;;15.53;14.03;;;;;;;12.65;100.00;97752.41;5073777;28;20250;-77
2023/05/16 00:51:58;;;;;;;15.80;14.30;;;;;;;12.57;100.00;97753.63;5073499;28;20299;-78
2023/05/16 00:54:28;;;;;;;17.03;14.97;;;;;;;12.46;100.00;97759.81;5073413;28;20215;-77
2023/05/16 00:56:55;;;;;;;17.07;15.23;;;;;;;12.45;100.00;97752.88;5073484;28;20284;-77
2023/05/16 00:59:22;;;;;;;17.07;15.47;;;;;;;12.33;100.00;97757.44;5073307;28;20733;-77
2023/05/16 01:01:49;;;;;;;18.30;16.60;;;;;;;12.35;100.00;97757.19;5073302;28;20667;-77
2023/05/16 01:04:16;;;;;;;17.93;16.27;;;;;;;12.37;100.00;97765.75;5073216;28;20569;-78
2023/05/16 01:06:43;;;;;;;18.03;16.37;;;;;;;12.31;100.00;97756.88;5073426;28;20225;-78
2023/05/16 01:09:11;;;;;;;17.43;15.73;;;;;;;12.30;100.00;97757.88;5073620;28;20199;-78
2023/05/16 01:12:04;;;;;;;17.10;15.40;;;;;;;12.30;100.00;97757.88;5073763;28;20204;-78
2023/05/16 01:14:46;;;;;;;19.27;17.33;;;;;;;12.26;100.00;97756.75;5038576;28;20292;-78
2023/05/16 01:17:27;;;;;;;19.17;17.27;;;;;;;12.31;100.00;97756.88;5073158;28;20606;-78
2023/05/16 01:20:21;;;;;;;20.03;18.10;;;;;;;12.31;100.00;97756.88;5073515;28;20210;-78
2023/05/16 01:23:04;;;;;;;20.10;18.10;;;;;;;12.32;100.00;97749.66;5059053;28;20190;-78
2023/05/16 01:26:02;;;;;;;20.80;18.77;;;;;;;12.40;100.00;97760.78;5073353;28;20237;-78
2023/05/16 01:28:30;;;;;;;21.67;19.37;;;;;;;12.32;100.00;97763.00;5073379;28;20269;-78
2023/05/16 01:30:56;;;;;;;21.20;19.10;;;;;;;12.23;100.00;97764.41;5073127;28;20207;-78
2023/05/16 01:33:23;;;;;;;21.90;19.70;;;;;;;12.24;100.00;97766.84;5073102;28;20204;-77
2023/05/16 01:36:01;;;;;;;21.30;19.30;;;;;;;12.20;100.00;97768.34;5073389;28;20684;-78
2023/05/16 01:38:40;;;;;;;23.23;20.93;;;;;;;12.14;100.00;97763.97;5073098;28;20690;-77
2023/05/16 01:41:18;;;;;;;23.63;21.23;;;;;;;12.01;100.00;97758.09;5075107;28;20645;-78
2023/05/16 01:43:48;;;;;;;26.00;23.30;;;;;;;11.98;100.00;97755.91;5076921;28;20201;-77
2023/05/16 01:46:18;;;;;;;24.77;22.17;;;;;;;11.91;100.00;97764.03;5076846;28;20234;-77
2023/05/16 01:48:57;;;;;;;26.00;23.27;;;;;;;12.03;100.00;97759.47;5076727;28;20231;-77
2023/05/16 01:51:29;;;;;;;25.73;23.30;;;;;;;12.02;100.00;97751.75;5076838;28;20193;-78
2023/05/16 01:54:00;;;;;;;26.30;23.53;;;;;;;11.92;100.00;97757.66;5076439;28;20530;-77
2023/05/16 01:56:28;;;;;;;27.13;24.30;;;;;;;11.95;100.00;97759.84;5076559;28;20278;-78
2023/05/16 01:58:56;;;;;;;26.83;24.23;;;;;;;11.93;100.00;97753.94;5076212;28;20220;-77
2023/05/16 02:01:22;;;;;;;27.90;24.67;;;;;;;11.90;100.00;97754.41;5076681;28;20208;-77
2023/05/16 02:03:49;;;;;;;28.43;25.53;;;;;;;11.90;100.00;97748.28;5076315;28;20208;-78
2023/05/16 02:06:16;;;;;;;29.37;25.90;;;;;;;11.95;100.00;97753.72;5075976;28;20239;-77
2023/05/16 02:08:42;;;;;;;31.37;24.57;;;;;;;11.85;100.00;97761.50;5076470;28;20247;-78
2023/05/16 02:11:09;;;;;;;29.43;26.23;;;;;;;11.90;100.00;97762.41;5076091;28;20211;-78
2023/05/16 02:13:36;;;;;;;28.57;25.57;;;;;;;11.84;100.00;97758.00;5076589;28;20201;-78
2023/05/16 02:16:03;;;;;;;30.27;27.07;;;;;;;11.80;100.00;97758.72;5076265;28;20236;-77
2023/05/16 02:18:29;;;;;;;28.20;25.20;;;;;;;11.85;100.00;97753.50;5076342;28;20274;-78
2023/05/16 02:20:55;;;;;;;28.40;25.40;;;;;;;11.83;100.00;97758.22;5076294;28;20206;-77
2023/05/16 02:23:22;;;;;;;29.03;26.03;;;;;;;11.90;100.00;97758.94;5076352;28;20211;-77
2023/05/16 02:25:48;;;;;;;29.20;25.63;;;;;;;11.89;100.00;97765.31;5076234;28;20229;-78
2023/05/16 02:28:14;;;;;;;31.47;26.80;;;;;;;11.86;100.00;97763.91;5076227;28;20219;-78
2023/05/16 02:30:41;;;;;;;30.90;27.17;;;;;;;11.74;100.00;97765.78;5076121;28;20561;-77
2023/05/16 02:33:07;;;;;;;31.80;28.50;;;;;;;11.76;100.00;97763.69;5076153;28;20686;-77
2023/05/16 02:35:33;;;;;;;33.00;27.90;;;;;;;11.75;100.00;97761.28;5075899;28;20567;-77
2023/05/16 02:38:00;;;;;;;33.63;29.20;;;;;;;11.70;100.00;97761.16;5076026;28;20219;-77
2023/05/16 02:40:26;;;;;;;29.43;26.43;;;;;;;11.82;100.00;97761.94;5076056;28;20311;-77
2023/05/16 02:42:53;;;;;;;31.10;27.03;;;;;;;11.71;100.00;97770.75;5075827;28;20240;-77
2023/05/16 02:45:19;;;;;;;30.47;27.17;;;;;;;11.72;100.00;97762.56;5075709;28;20315;-77
2023/05/16 02:47:45;;;;;;;31.63;27.53;;;;;;;11.65;100.00;97756.53;5075737;28;20204;-78
2023/05/16 02:50:12;;;;;;;34.00;28.37;;;;;;;11.60;100.00;97767.06;5075901;28;20203;-77
2023/05/16 02:52:38;;;;;;;34.03;30.37;;;;;;;11.54;100.00;97769.81;5074710;28;20294;-77
2023/05/16 02:55:06;;;;;;;33.33;28.97;;;;;;;11.57;100.00;97766.69;5075846;28;20211;-78
2023/05/16 02:57:32;;;;;;;32.90;28.40;;;;;;;11.52;100.00;97772.69;5075592;28;20215;-77
2023/05/16 02:59:59;;;;;;;34.73;30.30;;;;;;;11.67;100.00;97775.72;5075155;28;20711;-77
2023/05/16 03:02:26;;;;;;;35.23;30.60;;;;;;;11.55;100.00;97782.91;5075402;28;20231;-77
2023/05/16 03:04:52;;;;;;;34.63;30.97;;;;;;;11.52;100.00;97786.00;5075222;28;20201;-77
2023/05/16 03:07:18;;;;;;;35.00;30.90;;;;;;;11.51;100.00;97781.72;5075114;28;20227;-77
2023/05/16 03:09:45;;;;;;;35.33;30.37;;;;;;;11.51;100.00;97779.06;5075257;28;20205;-77
2023/05/16 03:12:11;;;;;;;35.20;30.67;;;;;;;11.51;100.00;97776.41;5075169;28;20295;-77
2023/05/16 03:14:37;;;;;;;37.60;31.10;;;;;;;11.46;100.00;97780.78;5074929;28;20671;-77
2023/05/16 03:17:04;;;;;;;35.67;30.23;;;;;;;11.51;100.00;97776.41;5074629;28;20718;-77
2023/05/16 03:19:31;;;;;;;34.70;30.57;;;;;;;11.51;100.00;97773.75;5074963;28;20698;-78
2023/05/16 03:21:57;;;;;;;39.00;32.43;;;;;;;11.47;100.00;97775.25;5074935;28;20592;-77
2023/05/16 03:24:24;;;;;;;39.60;33.00;;;;;;;11.54;100.00;97769.81;5074988;28;20250;-77
2023/05/16 03:26:50;;;;;;;39.57;33.37;;;;;;;11.48;100.00;97779.53;5075116;28;20329;-77
2023/05/16 03:29:17;;;;;;;44.87;34.90;;;;;;;11.38;100.00;97776.63;5074876;28;20227;-77
2023/05/16 03:31:44;;;;;;;41.23;34.80;;;;;;;11.44;100.00;97773.03;5074633;28;20205;-77
2023/05/16 03:34:10;;;;;;;41.77;33.37;;;;;;;11.48;100.00;97773.41;5074327;28;20215;-77
2023/05/16 03:36:36;;;;;;;43.13;36.27;;;;;;;11.46;100.00;97770.97;5074603;28;20634;-77
2023/05/16 03:39:03;;;;;;;40.70;35.07;;;;;;;11.48;100.00;97770.75;5074369;28;20694;-77
2023/05/16 03:41:29;;;;;;;43.83;34.57;;;;;;;11.45;100.00;97769.34;5074561;28;20208;-77
2023/05/16 03:43:56;;;;;;;42.67;35.13;;;;;;;11.45;100.00;97772.00;5074525;28;20295;-77
2023/05/16 03:46:22;;;;;;;44.63;35.97;;;;;;;11.45;100.00;97772.00;5074518;28;20231;-77
2023/05/16 03:48:48;;;;;;;46.10;37.27;;;;;;;11.38;100.00;97773.97;5074383;28;20208;-77
2023/05/16 03:51:15;;;;;;;44.87;35.60;;;;;;;11.55;100.00;97777.56;5074317;28;20208;-78
2023/05/16 03:53:41;;;;;;;48.20;37.73;;;;;;;11.58;100.00;97776.28;5074155;28;20244;-77
2023/05/16 03:56:07;;;;;;;45.33;38.13;;;;;;;11.60;100.00;97772.38;5074472;28;20224;-77
2023/05/16 03:58:34;;;;;;;49.53;38.03;;;;;;;11.53;100.00;97784.97;5074611;28;20233;-78
2023/05/16 04:01:00;;;;;;;48.63;37.83;;;;;;;11.62;100.00;97778.28;5073820;28;20628;-78
2023/05/16 04:03:28;;;;;;;49.57;38.27;;;;;;;11.63;100.00;97779.09;5074033;28;20200;-77
2023/05/16 04:05:55;;;;;;;50.47;38.93;;;;;;;11.66;100.00;97782.09;5073721;28;20780;-77
2023/05/16 04:08:22;;;;;;;46.13;37.20;;;;;;;11.64;100.00;97775.38;5073770;28;20731;-77
2023/05/16 04:10:48;;;;;;;47.87;37.30;;;;;;;11.74;100.00;97792.41;5074102;28;20231;-77
2023/05/16 04:13:15;;;;;;;46.73;38.00;;;;;;;11.63;100.00;97787.91;5073805;28;20212;-78
2023/05/16 04:15:41;;;;;;;49.90;39.07;;;;;;;11.62;100.00;97794.25;5073589;28;20243;-77
2023/05/16 04:18:09;;;;;;;50.50;38.90;;;;;;;11.62;100.00;97796.13;5073660;28;20192;-77
2023/05/16 04:20:35;;;;;;;52.00;40.03;;;;;;;11.65;100.00;97803.63;5073705;28;20231;-77
2023/05/16 04:23:02;;;;;;;49.53;38.60;;;;;;;11.69;100.00;97788.81;5073734;28;20205;-77
2023/05/16 04:25:30;;;;;;;49.43;38.30;;;;;;;11.74;100.00;97788.91;5073537;28;20232;-74
2023/05/16 04:27:56;;;;;;;47.40;38.33;;;;;;;11.73;100.00;97803.28;5073376;28;20588;-73
2023/05/16 04:30:23;;;;;;;48.13;38.30;;;;;;;11.79;100.00;97805.00;5073668;28;20208;-73
2023/05/16 04:32:49;;;;;;;50.07;38.90;;;;;;;11.72;100.00;97804.34;5073819;28;20589;-77
2023/05/16 04:35:15;;;;;;;51.53;39.43;;;;;;;11.79;100.00;97803.16;5073698;28;20239;-77
2023/05/16 04:37:42;;;;;;;49.80;37.27;;;;;;;11.79;100.00;97803.16;5073653;28;20204;-77
2023/05/16 04:40:10;;;;;;;47.67;37.20;;;;;;;11.78;100.00;97798.91;5073566;28;20227;-78
2023/05/16 04:42:36;;;;;;;46.40;37.20;;;;;;;11.93;100.00;97803.75;5073343;28;20236;-77
2023/05/16 04:45:05;;;;;;;46.43;37.30;;;;;;;11.93;100.00;97806.41;5073418;28;20208;-77
2023/05/16 04:47:32;;;;;;;46.63;37.57;;;;;;;11.91;100.00;97811.97;5073012;28;20206;-77
2023/05/16 04:49:58;;;;;;;48.13;38.07;;;;;;;11.94;100.00;97819.47;5073510;28;20200;-78
2023/05/16 04:52:24;;;;;;;45.93;37.37;;;;;;;11.93;100.00;97817.88;5073395;28;20204;-77
2023/05/16 04:54:51;;;;;;;46.30;36.57;;;;;;;11.94;100.00;97813.38;5073606;28;20254;-77
2023/05/16 04:57:18;;;;;;;47.13;37.90;;;;;;;11.95;100.00;97813.13;5073436;28;20225;-78
2023/05/16 04:59:44;;;;;;;48.73;37.50;;;;;;;12.08;100.00;97820.84;5073220;28;20221;-77
2023/05/16 05:02:11;;;;;;;46.67;37.67;;;;;;;12.20;100.00;97810.22;5073226;28;20200;-77
2023/05/16 05:04:37;;;;;;;51.23;37.83;;;;;;;12.18;100.00;97820.28;5073130;28;20205;-78
2023/05/16 05:07:03;;;;;;;47.97;37.73;;;;;;;12.13;100.00;97825.50;5073237;28;20231;-78
2023/05/16 05:09:30;;;;;;;48.73;38.30;;;;;;;12.12;100.00;97827.34;5073384;28;20199;-77
2023/05/16 05:11:56;;;;;;;50.13;38.27;;;;;;;12.08;100.00;97825.41;5073169;28;20207;-78
2023/05/16 05:14:22;;;;;;;47.80;37.17;;;;;;;12.15;100.00;97836.72;5073291;28;20212;-77
2023/05/16 05:16:49;;;;;;;47.20;38.00;;;;;;;12.06;100.00;97833.63;5076403;28;20314;-78
2023/05/16 05:19:15;;;;;;;48.60;38.37;;;;;;;12.07;100.00;97829.91;5077756;28;20292;-77
2023/05/16 05:21:42;;;;;;;47.40;38.43;;;;;;;12.12;100.00;97832.66;5077432;28;20204;-78
2023/05/16 05:24:08;;;;;;;49.67;37.47;;;;;;;12.13;100.00;97831.66;5077067;28;20211;-78
2023/05/16 05:26:34;;;;;;;44.50;36.23;;;;;;;12.09;100.00;97833.16;5076922;28;20315;-77
2023/05/16 05:29:01;;;;;;;47.23;38.03;;;;;;;12.07;100.00;97829.91;5077146;28;20219;-78
2023/05/16 05:31:27;;;;;;;47.07;37.87;;;;;;;12.14;100.00;97835.94;5077958;28;20555;-77
2023/05/16 05:33:55;;;;;;;44.80;38.50;;;;;;;12.12;100.00;97838.00;5077573;28;20209;-78
2023/05/16 05:36:22;;;;;;;50.50;38.00;;;;;;;12.09;100.00;97833.16;5077244;28;20224;-78
2023/05/16 05:38:48;;;;;;;46.83;38.47;;;;;;;12.05;100.00;97825.84;5078032;28;20207;-77
2023/05/16 05:41:14;;;;;;;46.20;37.03;;;;;;;12.16;100.00;97823.16;5077007;28;20232;-77
2023/05/16 05:43:41;;;;;;;50.93;38.60;;;;;;;12.12;100.00;97832.66;5076746;28;20209;-77
2023/05/16 05:46:08;;;;;;;47.73;36.87;;;;;;;12.13;100.00;97834.31;5076803;28;20229;-78
2023/05/16 05:48:35;;;;;;;46.17;36.77;;;;;;;12.15;100.00;97829.53;5076943;28;20215;-77
2023/05/16 05:51:01;;;;;;;45.77;37.00;;;;;;;12.11;100.00;97836.38;5076417;28;20207;-77
2023/05/16 05:53:28;;;;;;;43.80;36.13;;;;;;;12.06;100.00;97833.63;5076866;28;20694;-78
2023/05/16 05:55:54;;;;;;;45.40;36.07;;;;;;;12.10;100.00;97841.94;5076192;28;20233;-78
2023/05/16 05:58:22;;;;;;;42.57;34.93;;;;;;;12.18;100.00;97847.75;5076516;28;20296;-78
2023/05/16 06:00:48;;;;;;;43.67;35.93;;;;;;;12.22;100.00;97850.75;5076270;28;20231;-77
2023/05/16 06:03:15;;;;;;;43.27;34.37;;;;;;;12.17;100.00;97850.63;5076175;28;20211;-77
2023/05/16 06:05:41;;;;;;;41.43;34.00;;;;;;;12.16;100.00;97854.34;5075477;28;20225;-78
2023/05/16 06:08:08;;;;;;;39.03;33.23;;;;;;;12.16;100.00;97860.47;5076107;28;20219;-77
2023/05/16 06:10:34;;;;;;;41.17;34.93;;;;;;;12.22;100.00;97861.41;5076705;28;20201;-78
2023/05/16 06:13:01;;;;;;;37.40;32.27;;;;;;;12.43;100.00;97872.25;5075655;28;20664;-77
2023/05/16 06:15:27;;;;;;;36.50;31.07;;;;;;;12.34;100.00;97868.34;5075655;28;20737;-77
2023/05/16 06:17:53;;;;;;;37.37;31.70;;;;;;;12.41;100.00;97874.38;5075991;28;20191;-78
2023/05/16 06:20:20;;;;;;;39.63;32.47;;;;;;;12.38;100.00;97864.16;5076159;28;20221;-77
2023/05/16 06:22:46;;;;;;;40.40;32.57;;;;;;;12.42;100.00;97859.97;5076227;28;20252;-77
2023/05/16 06:25:12;;;;;;;38.67;32.20;;;;;;;12.46;100.00;97861.13;5075851;28;20226;-77
2023/05/16 06:27:39;;;;;;;40.33;31.67;;;;;;;12.50;100.00;97869.47;5075450;28;20206;-74
2023/05/16 06:30:06;;;;;;;35.43;30.47;;;;;;;12.55;100.00;97875.72;5075510;28;20256;-73
2023/05/16 06:32:32;;;;;;;37.50;31.23;;;;;;;12.72;100.00;97868.63;5075593;28;20200;-73
2023/05/16 06:34:59;;;;;;;37.93;30.83;;;;;;;12.72;100.00;97871.28;5075398;28;20205;-73
2023/05/16 06:37:25;;;;;;;37.43;30.07;;;;;;;12.57;100.00;97875.50;5075322;28;20207;-73
2023/05/16 06:39:52;;;;;;;34.03;30.33;;;;;;;12.21;100.00;97881.91;5075000;28;20247;-74
2023/05/16 06:42:19;;;;;;;35.50;31.23;;;;;;;12.31;100.00;97882.16;5074790;28;20247;-73
2023/05/16 06:44:46;;;;;;;34.33;30.50;;;;;;;12.31;100.00;97878.66;5075158;28;20204;-73
2023/05/16 06:47:12;;;;;;;35.97;31.83;;;;;;;12.34;100.00;97879.00;5075138;28;20225;-73
2023/05/16 06:49:38;;;;;;;38.00;30.90;;;;;;;12.36;100.00;97881.44;5075213;28;20254;-73
2023/05/16 06:52:05;;;;;;;33.43;29.80;;;;;;;12.43;100.00;97888.25;5074954;28;20706;-73
2023/05/16 06:54:32;;;;;;;34.17;28.57;;;;;;;12.37;100.00;97881.22;5075227;28;20567;-73
2023/05/16 06:56:58;;;;;;;31.43;28.00;;;;;;;12.49;100.00;97882.00;5075239;28;20233;-73
2023/05/16 06:59:24;;;;;;;34.63;28.63;;;;;;;12.41;100.00;97879.69;5075277;28;20209;-73
2023/05/16 07:01:51;;;;;;;31.87;26.77;;;;;;;12.48;100.00;97880.34;5074669;28;20703;-73
2023/05/16 07:04:17;;;;;;;29.33;24.83;;;;;;;12.42;100.00;97885.81;5075008;28;20220;-73
2023/05/16 07:06:43;;;;;;;30.53;25.97;;;;;;;12.37;100.00;97883.88;5074831;28;20229;-73
2023/05/16 07:09:10;;;;;;;31.33;26.80;;;;;;;12.27;100.00;97883.66;5074752;28;20205;-73
2023/05/16 07:11:36;;;;;;;27.37;24.37;;;;;;;12.36;100.00;97892.09;5074888;28;20200;-73
2023/05/16 07:14:02;;;;;;;26.93;24.03;;;;;;;12.53;100.00;97893.78;5074856;28;20204;-74
2023/05/16 07:16:29;;;;;;;26.03;22.30;;;;;;;12.41;100.00;97894.88;5074407;28;20239;-73
2023/05/16 07:18:55;;;;;;;25.13;22.03;;;;;;;12.43;100.00;97896.25;5074700;28;20205;-73
2023/05/16 07:21:22;;;;;;;22.33;19.93;;;;;;;12.36;100.00;97903.59;5074629;28;20225;-73
2023/05/16 07:23:48;;;;;;;20.37;18.27;;;;;;;12.48;100.00;97901.69;5074605;28;20214;-73
2023/05/16 07:26:14;;;;;;;17.10;15.33;;;;;;;12.18;100.00;97895.72;5074647;28;20227;-73
2023/05/16 07:28:41;;;;;;;16.77;15.03;;;;;;;12.13;100.00;97908.09;5074314;28;20647;-73
2023/05/16 07:31:08;;;;;;;15.33;13.83;;;;;;;12.18;100.00;97900.22;5074760;28;20204;-73
2023/05/16 07:33:34;;;;;;;13.80;12.53;;;;;;;12.29;100.00;97908.22;5074313;28;20663;-73
2023/05/16 07:36:01;;;;;;;14.60;13.10;;;;;;;12.41;100.00;97903.69;5074284;28;20311;-73
2023/05/16 07:38:27;;;;;;;13.30;12.00;;;;;;;12.51;100.00;97906.56;5073944;28;20205;-73
2023/05/16 07:40:53;;;;;;;13.77;12.40;;;;;;;12.74;100.00;97911.03;5074485;28;20220;-73
2023/05/16 07:43:20;;;;;;;12.07;10.87;;;;;;;12.86;100.00;97904.63;5074332;28;20215;-73
2023/05/16 07:45:46;;;;;;;11.90;10.70;;;;;;;12.85;100.00;97907.53;5073494;28;20224;-73
2023/05/16 07:48:12;;;;;;;11.27;10.17;;;;;;;12.63;100.00;97925.22;5074166;28;20212;-73
2023/05/16 07:50:39;;;;;;;12.27;10.90;;;;;;;12.46;100.00;97911.78;5072012;28;20204;-73
2023/05/16 07:53:05;;;;;;;12.37;11.17;;;;;;;12.63;100.00;97920.69;5071658;28;20667;-73
2023/05/16 07:55:31;;;;;;;12.87;11.67;;;;;;;12.76;100.00;97920.44;5071528;28;20594;-72
2023/05/16 07:57:58;;;;;;;12.80;11.60;;;;;;;12.74;100.00;97927.84;5071937;28;20625;-73
2023/05/16 08:00:24;;;;;;;12.00;10.90;;;;;;;12.53;100.00;97925.00;5071634;28;20221;-73
2023/05/16 08:02:51;;;;;;;11.73;10.63;;;;;;;12.55;100.00;97928.22;5072059;28;20214;-73
2023/05/16 08:05:17;;;;;;;12.20;11.20;;;;;;;12.65;100.00;97929.25;5073888;28;20231;-73
2023/05/16 08:07:44;;;;;;;12.83;11.50;;;;;;;12.71;100.00;97924.84;5074033;28;20200;-73
2023/05/16 08:10:10;;;;;;;12.87;11.53;;;;;;;12.79;100.00;97930.63;5073710;28;20245;-73
2023/05/16 08:12:36;;;;;;;11.13;10.23;;;;;;;12.46;100.00;97933.13;5073963;28;20205;-73
2023/05/16 08:15:04;;;;;;;13.63;12.33;;;;;;;12.35;100.00;97933.13;5073583;28;20204;-73
2023/05/16 08:17:30;;;;;;;12.47;11.33;;;;;;;12.41;100.00;97934.84;5073355;28;20243;-73
2023/05/16 08:19:58;;;;;;;12.53;11.30;;;;;;;12.44;100.00;97927.19;5073289;28;20204;-74
2023/05/16 08:22:25;;;;;;;12.73;11.53;;;;;;;12.36;100.00;97929.41;5073678;28;20306;-73
2023/05/16 08:24:51;;;;;;;12.83;11.63;;;;;;;12.39;100.00;97939.63;5073721;28;20203;-73
2023/05/16 08:27:18;;;;;;;13.47;12.13;;;;;;;12.19;100.00;97939.97;5073514;28;20311;-73
2023/05/16 08:29:44;;;;;;;13.17;11.87;;;;;;;12.06;100.00;97945.53;5073358;28;20699;-73
2023/05/16 08:32:11;;;;;;;14.03;12.63;;;;;;;12.06;100.00;97939.38;5073650;28;20205;-73
2023/05/16 08:34:37;;;;;;;15.83;13.80;;;;;;;12.08;100.00;97947.97;5073485;28;20204;-73
2023/05/16 08:37:03;;;;;;;15.80;14.20;;;;;;;12.08;100.00;97950.63;5073562;28;20252;-73
2023/05/16 08:39:30;;;;;;;16.83;15.03;;;;;;;12.03;100.00;97947.84;5073150;28;20686;-73
2023/05/16 08:41:57;;;;;;;15.27;13.87;;;;;;;12.12;100.00;97952.59;5073511;28;20225;-73
2023/05/16 08:44:24;;;;;;;16.13;14.60;;;;;;;12.21;100.00;97953.06;5073385;28;20243;-73
2023/05/16 08:46:52;;;;;;;17.40;15.53;;;;;;;12.15;100.00;97957.47;5073026;28;20225;-73
2023/05/16 08:49:20;;;;;;;17.60;15.80;;;;;;;12.16;100.00;97953.75;5072496;28;20568;-73
2023/05/16 08:51:48;;;;;;;18.13;16.30;;;;;;;12.09;100.00;97953.06;5072789;28;20210;-73
2023/05/16 08:54:15;;;;;;;17.20;15.37;;;;;;;12.25;100.00;97956.91;5073488;28;20212;-73
2023/05/16 08:56:43;;;;;;;18.60;16.60;;;;;;;12.11;100.00;97958.97;5073178;28;20224;-73
2023/05/16 08:59:11;;;;;;;18.00;16.20;;;;;;;12.20;100.00;97960.25;5073277;28;20200;-73
2023/05/16 09:01:38;;;;;;;19.07;16.70;;;;;;;12.09;100.00;97969.06;5073217;28;20265;-73
2023/05/16 09:04:07;;;;;;;18.13;16.27;;;;;;;12.03;100.00;97966.50;5073291;28;20208;-73
2023/05/16 09:06:34;;;;;;;19.70;17.03;;;;;;;12.23;100.00;97962.47;5073235;28;20224;-73
2023/05/16 09:09:01;;;;;;;19.00;17.10;;;;;;;12.21;100.00;97971.72;5072887;28;20209;-73
2023/05/16 09:11:28;;;;;;;18.90;17.00;;;;;;;12.24;100.00;97974.72;5072805;28;20285;-74
2023/05/16 09:13:54;;;;;;;18.47;16.67;;;;;;;12.34;100.00;97969.63;5072787;28;20209;-73
2023/05/16 09:16:21;;;;;;;20.70;18.67;;;;;;;12.27;100.00;97963.63;5072485;28;20233;-73
2023/05/16 09:19:01;;;;;;;19.77;17.77;;;;;;;12.18;100.00;97973.00;5072441;28;20208;-73
2023/05/16 09:21:30;;;;;;;19.70;17.70;;;;;;;12.19;100.00;97963.13;5072877;28;20220;-73
2023/05/16 09:24:02;;;;;;;20.03;17.93;;;;;;;12.22;100.00;97960.84;5072994;28;20210;-73
2023/05/16 09:26:28;;;;;;;21.33;19.03;;;;;;;12.28;100.00;97961.75;5072694;28;20788;-73
2023/05/16 09:28:55;;;;;;;25.00;20.93;;;;;;;12.24;100.00;97965.91;5073471;28;20205;-73
2023/05/16 09:31:25;;;;;;;22.77;20.20;;;;;;;12.35;100.00;97957.91;5073112;28;20205;-73
2023/05/16 09:33:52;;;;;;;22.20;19.80;;;;;;;12.39;100.00;97967.06;5072630;28;20239;-73
2023/05/16 09:36:19;;;;;;;21.77;19.47;;;;;;;12.36;100.00;97969.41;5072557;28;20228;-73
2023/05/16 09:38:45;;;;;;;23.73;21.30;;;;;;;12.53;100.00;97960.47;5072899;28;20215;-73
2023/05/16 09:41:12;;;;;;;23.77;21.40;;;;;;;12.52;100.00;97961.50;5072901;28;20228;-73
2023/05/16 09:43:40;;;;;;;24.57;21.20;;;;;;;12.83;100.00;97961.13;5073001;28;20221;-73
2023/05/16 09:46:06;;;;;;;21.77;19.57;;;;;;;13.03;100.00;97955.44;5072938;28;20225;-73
2023/05/16 09:48:33;;;;;;;22.67;20.23;;;;;;;13.46;100.00;97959.22;5072485;28;20212;-73
2023/05/16 09:51:02;;;;;;;21.87;19.50;;;;;;;13.68;100.00;97952.13;5072803;28;20311;-73
2023/05/16 09:53:33;;;;;;;21.97;19.80;;;;;;;13.64;100.00;97955.50;5072799;28;20207;-73
2023/05/16 09:56:20;;;;;;;22.20;19.90;;;;;;;13.21;100.00;97953.38;5072422;28;20263;-73
2023/05/16 09:58:46;;;;;;;23.03;19.97;;;;;;;13.01;100.00;97947.66;5072725;28;20197;-73
2023/05/16 10:01:13;;;;;;;22.20;19.63;;;;;;;13.00;100.00;97958.56;5073184;28;20701;-74
2023/05/16 10:03:42;;;;;;;23.17;20.77;;;;;;;13.09;100.00;97941.13;5076223;28;20208;-73
2023/05/16 10:06:09;;;;;;;22.83;20.50;;;;;;;13.12;100.00;97951.34;5076075;28;20319;-73
2023/05/16 10:08:37;;;;;;;22.87;20.47;;;;;;;13.27;100.00;97955.13;5076283;28;20202;-73
2023/05/16 10:11:05;;;;;;;21.60;19.37;;;;;;;13.50;100.00;97955.00;5076169;28;20207;-73
2023/05/16 10:13:34;;;;;;;25.60;21.50;;;;;;;13.44;100.00;97952.50;5075817;28;20207;-73
2023/05/16 10:16:06;;;;;;;23.27;19.80;;;;;;;13.43;100.00;97954.34;5075889;28;20607;-73
2023/05/16 10:18:33;;;;;;;23.67;19.77;;;;;;;13.61;100.00;97954.13;5076100;28;20620;-74
2023/05/16 10:21:17;;;;;;;21.80;19.50;;;;;;;13.50;100.00;97944.34;5075780;28;20236;-73
2023/05/16 10:23:47;;;;;;;20.93;18.70;;;;;;;13.79;100.00;97943.22;5075919;28;20200;-73
2023/05/16 10:26:16;;;;;;;20.07;18.07;;;;;;;13.75;100.00;97942.09;5075820;28;20246;-73
2023/05/16 10:28:43;;;;;;;20.43;18.20;;;;;;;13.76;100.00;97938.38;5075361;28;20214;-73
2023/05/16 10:31:14;;;;;;;20.33;18.33;;;;;;;13.96;100.00;97960.09;5075686;28;20694;-73
2023/05/16 10:33:40;;;;;;;19.67;17.40;;;;;;;13.77;100.00;97956.03;5075720;28;20212;-73
2023/05/16 10:36:09;;;;;;;19.90;18.00;;;;;;;13.71;100.00;97951.63;5075729;28;20236;-73
2023/05/16 10:38:37;;;;;;;20.47;18.27;;;;;;;13.59;100.00;97953.56;5075425;28;20207;-73
2023/05/16 10:41:04;;;;;;;21.03;18.53;;;;;;;13.44;100.00;97957.84;5075482;28;20239;-73
2023/05/16 10:43:32;;;;;;;20.50;18.33;;;;;;;13.50;100.00;97952.34;5075623;28;20602;-73
2023/05/16 10:46:09;;;;;;;18.57;16.67;;;;;;;13.41;100.00;97952.97;5075707;28;20230;-73
2023/05/16 10:48:37;;;;;;;19.00;16.87;;;;;;;13.10;100.00;97948.91;5075171;28;20583;-73
2023/05/16 10:51:25;;;;;;;19.20;17.13;;;;;;;13.16;100.00;97953.28;5074992;28;20678;-73
2023/05/16 10:53:53;;;;;;;17.17;15.27;;;;;;;13.11;100.00;97961.19;5074913;28;20209;-73
2023/05/16 10:56:29;;;;;;;17.73;15.83;;;;;;;12.83;100.00;97950.44;5075015;28;20237;-73
2023/05/16 10:58:56;;;;;;;18.90;15.57;;;;;;;12.74;100.00;97959.03;5075108;28;20189;-73
2023/05/16 11:01:34;;;;;;;16.07;14.20;;;;;;;12.61;100.00;97962.78;5075003;28;20220;-73
2023/05/16 11:04:01;;;;;;;18.30;15.63;;;;;;;12.40;100.00;97962.56;5057469;28;20208;-73
2023/05/16 11:06:51;;;;;;;17.97;15.57;;;;;;;12.36;100.00;97964.06;5075110;28;20235;-73
2023/05/16 11:09:24;;;;;;;16.87;15.07;;;;;;;12.25;100.00;97973.69;5075066;28;20553;-73
2023/05/16 11:11:58;;;;;;;16.93;15.07;;;;;;;12.05;100.00;97969.72;5075152;28;20276;-73